Blairsville, Illinois
Current Conditions -  °F | °C
As of 11:51 AM on Friday 21 Nov 2014 (Local Time) from KMWA Reporting Station
Scattered Clouds Scattered Clouds  
Wind Chill:   Ceiling: Unl
Heat Index:   Visibility: 20mi
Dew Point: -6°   Wind: 12mph
Humidity: 42%   Direction: 140°SE
Pressure: 30.42"   Gusts: NA
Location:  37.7927°N, 89.0997°W
Report Text: KMWA 211751Z 14010KT 20SM SCT150 06/M06 A3042
Loading
Personal Weather Stations






























Interactive Weather Map New forecast layout! Learn more

10-Day Weather Forecast

Advertisements
Track Severe Weather on mobile